sensor_id;sensor_type;location;lat;lon;timestamp;P1;durP1;ratioP1;P2;durP2;ratioP2
14102;SDS011;7129;48.832;12.472;2022-12-10T00:03:25;31.90;;;21.23;;
14102;SDS011;7129;48.832;12.472;2022-12-10T00:08:27;31.10;;;21.37;;
14102;SDS011;7129;48.832;12.472;2022-12-10T00:13:29;31.07;;;19.70;;
14102;SDS011;7129;48.832;12.472;2022-12-10T00:18:33;28.83;;;20.50;;
14102;SDS011;7129;48.832;12.472;2022-12-10T00:23:36;33.30;;;20.27;;
14102;SDS011;7129;48.832;12.472;2022-12-10T00:28:38;29.70;;;20.53;;
14102;SDS011;7129;48.832;12.472;2022-12-10T00:33:42;29.13;;;19.83;;
14102;SDS011;7129;48.832;12.472;2022-12-10T00:38:45;32.73;;;21.20;;
14102;SDS011;7129;48.832;12.472;2022-12-10T00:43:48;30.50;;;21.00;;
14102;SDS011;7129;48.832;12.472;2022-12-10T00:48:51;29.63;;;20.63;;
14102;SDS011;7129;48.832;12.472;2022-12-10T00:53:54;30.13;;;20.63;;
14102;SDS011;7129;48.832;12.472;2022-12-10T00:58:57;30.70;;;21.07;;
14102;SDS011;7129;48.832;12.472;2022-12-10T01:04:02;30.33;;;20.23;;
14102;SDS011;7129;48.832;12.472;2022-12-10T01:09:06;32.73;;;21.53;;
14102;SDS011;7129;48.832;12.472;2022-12-10T01:14:11;32.33;;;22.13;;
14102;SDS011;7129;48.832;12.472;2022-12-10T01:19:17;31.77;;;21.43;;
14102;SDS011;7129;48.832;12.472;2022-12-10T01:24:20;34.03;;;21.33;;
14102;SDS011;7129;48.832;12.472;2022-12-10T01:29:23;33.30;;;21.80;;
14102;SDS011;7129;48.832;12.472;2022-12-10T01:34:28;31.83;;;21.17;;
14102;SDS011;7129;48.832;12.472;2022-12-10T01:39:29;32.03;;;22.30;;
14102;SDS011;7129;48.832;12.472;2022-12-10T01:50:07;32.47;;;21.03;;
14102;SDS011;7129;48.832;12.472;2022-12-10T02:00:43;30.70;;;20.30;;
14102;SDS011;7129;48.832;12.472;2022-12-10T02:05:55;29.33;;;20.20;;
14102;SDS011;7129;48.832;12.472;2022-12-10T02:11:09;32.87;;;21.23;;
14102;SDS011;7129;48.832;12.472;2022-12-10T02:16:18;30.77;;;21.33;;
14102;SDS011;7129;48.832;12.472;2022-12-10T02:21:30;31.33;;;21.50;;
14102;SDS011;7129;48.832;12.472;2022-12-10T02:26:39;34.07;;;21.60;;
14102;SDS011;7129;48.832;12.472;2022-12-10T02:31:47;39.50;;;24.90;;
14102;SDS011;7129;48.832;12.472;2022-12-10T02:36:52;36.70;;;23.67;;
14102;SDS011;7129;48.832;12.472;2022-12-10T02:41:57;37.70;;;24.43;;
14102;SDS011;7129;48.832;12.472;2022-12-10T02:47:04;34.43;;;22.17;;
14102;SDS011;7129;48.832;12.472;2022-12-10T02:52:27;32.37;;;22.27;;
14102;SDS011;7129;48.832;12.472;2022-12-10T02:57:32;35.90;;;23.13;;
14102;SDS011;7129;48.832;12.472;2022-12-10T03:02:43;36.10;;;23.50;;
14102;SDS011;7129;48.832;12.472;2022-12-10T03:08:03;32.43;;;21.87;;
14102;SDS011;7129;48.832;12.472;2022-12-10T03:13:12;34.30;;;21.43;;
14102;SDS011;7129;48.832;12.472;2022-12-10T03:23:41;32.33;;;21.40;;
14102;SDS011;7129;48.832;12.472;2022-12-10T03:28:47;32.07;;;21.90;;
14102;SDS011;7129;48.832;12.472;2022-12-10T03:33:54;30.03;;;21.77;;
14102;SDS011;7129;48.832;12.472;2022-12-10T03:38:55;33.73;;;21.53;;
14102;SDS011;7129;48.832;12.472;2022-12-10T03:43:59;34.50;;;21.80;;
14102;SDS011;7129;48.832;12.472;2022-12-10T03:49:03;36.13;;;23.27;;
14102;SDS011;7129;48.832;12.472;2022-12-10T03:54:05;31.27;;;21.30;;
14102;SDS011;7129;48.832;12.472;2022-12-10T03:59:07;35.47;;;23.53;;
14102;SDS011;7129;48.832;12.472;2022-12-10T04:04:10;34.53;;;23.10;;
14102;SDS011;7129;48.832;12.472;2022-12-10T04:09:13;38.13;;;24.23;;
14102;SDS011;7129;48.832;12.472;2022-12-10T04:14:16;35.43;;;23.50;;
14102;SDS011;7129;48.832;12.472;2022-12-10T04:19:48;36.47;;;24.13;;
14102;SDS011;7129;48.832;12.472;2022-12-10T04:24:50;32.37;;;22.57;;
14102;SDS011;7129;48.832;12.472;2022-12-10T04:30:11;35.53;;;24.17;;
14102;SDS011;7129;48.832;12.472;2022-12-10T04:35:15;33.50;;;23.23;;
14102;SDS011;7129;48.832;12.472;2022-12-10T04:40:17;33.47;;;22.67;;
14102;SDS011;7129;48.832;12.472;2022-12-10T04:45:19;38.17;;;24.90;;
14102;SDS011;7129;48.832;12.472;2022-12-10T04:50:23;42.33;;;25.37;;
14102;SDS011;7129;48.832;12.472;2022-12-10T04:55:25;40.30;;;25.43;;
14102;SDS011;7129;48.832;12.472;2022-12-10T05:00:26;36.43;;;23.20;;
14102;SDS011;7129;48.832;12.472;2022-12-10T05:05:31;33.23;;;22.73;;
14102;SDS011;7129;48.832;12.472;2022-12-10T05:10:34;40.60;;;24.47;;
14102;SDS011;7129;48.832;12.472;2022-12-10T05:21:01;40.77;;;24.70;;
14102;SDS011;7129;48.832;12.472;2022-12-10T05:26:05;40.13;;;24.83;;
14102;SDS011;7129;48.832;12.472;2022-12-10T05:31:11;42.60;;;25.77;;
14102;SDS011;7129;48.832;12.472;2022-12-10T05:36:16;35.57;;;23.43;;
14102;SDS011;7129;48.832;12.472;2022-12-10T05:41:20;39.20;;;24.93;;
14102;SDS011;7129;48.832;12.472;2022-12-10T05:46:26;37.07;;;23.67;;
14102;SDS011;7129;48.832;12.472;2022-12-10T05:51:31;40.10;;;26.30;;
14102;SDS011;7129;48.832;12.472;2022-12-10T05:56:34;43.63;;;27.03;;
14102;SDS011;7129;48.832;12.472;2022-12-10T06:01:37;40.17;;;25.60;;
14102;SDS011;7129;48.832;12.472;2022-12-10T06:06:40;64.47;;;37.53;;
14102;SDS011;7129;48.832;12.472;2022-12-10T06:11:42;69.37;;;42.87;;
14102;SDS011;7129;48.832;12.472;2022-12-10T06:16:44;42.07;;;26.47;;
14102;SDS011;7129;48.832;12.472;2022-12-10T06:21:48;36.37;;;25.33;;
14102;SDS011;7129;48.832;12.472;2022-12-10T06:26:49;42.17;;;24.80;;
14102;SDS011;7129;48.832;12.472;2022-12-10T06:31:52;39.57;;;24.37;;
14102;SDS011;7129;48.832;12.472;2022-12-10T06:36:55;39.60;;;23.97;;
14102;SDS011;7129;48.832;12.472;2022-12-10T06:41:57;41.23;;;25.73;;
14102;SDS011;7129;48.832;12.472;2022-12-10T06:46:59;41.73;;;24.67;;
14102;SDS011;7129;48.832;12.472;2022-12-10T06:52:02;38.40;;;26.10;;
14102;SDS011;7129;48.832;12.472;2022-12-10T06:57:04;41.67;;;27.23;;
14102;SDS011;7129;48.832;12.472;2022-12-10T07:02:07;41.97;;;26.70;;
14102;SDS011;7129;48.832;12.472;2022-12-10T07:07:11;46.63;;;26.93;;
14102;SDS011;7129;48.832;12.472;2022-12-10T07:12:12;40.73;;;25.23;;
14102;SDS011;7129;48.832;12.472;2022-12-10T07:17:14;45.57;;;29.73;;
14102;SDS011;7129;48.832;12.472;2022-12-10T07:22:18;43.47;;;27.17;;
14102;SDS011;7129;48.832;12.472;2022-12-10T07:27:20;46.47;;;28.63;;
14102;SDS011;7129;48.832;12.472;2022-12-10T07:32:22;55.73;;;28.57;;
14102;SDS011;7129;48.832;12.472;2022-12-10T07:37:25;43.30;;;26.73;;
14102;SDS011;7129;48.832;12.472;2022-12-10T07:42:27;48.13;;;27.50;;
14102;SDS011;7129;48.832;12.472;2022-12-10T07:47:29;43.30;;;27.53;;
14102;SDS011;7129;48.832;12.472;2022-12-10T07:52:32;46.07;;;27.07;;
14102;SDS011;7129;48.832;12.472;2022-12-10T07:57:34;47.70;;;28.87;;
14102;SDS011;7129;48.832;12.472;2022-12-10T08:02:36;40.77;;;26.07;;
14102;SDS011;7129;48.832;12.472;2022-12-10T08:07:40;42.40;;;26.67;;
14102;SDS011;7129;48.832;12.472;2022-12-10T08:12:42;45.27;;;28.53;;
14102;SDS011;7129;48.832;12.472;2022-12-10T08:17:43;41.00;;;26.93;;
14102;SDS011;7129;48.832;12.472;2022-12-10T08:22:47;43.87;;;26.93;;
14102;SDS011;7129;48.832;12.472;2022-12-10T08:27:50;43.20;;;27.93;;
14102;SDS011;7129;48.832;12.472;2022-12-10T08:32:52;45.27;;;27.97;;
14102;SDS011;7129;48.832;12.472;2022-12-10T08:37:55;43.73;;;27.40;;
14102;SDS011;7129;48.832;12.472;2022-12-10T08:42:58;42.80;;;27.33;;
14102;SDS011;7129;48.832;12.472;2022-12-10T08:48:00;45.43;;;29.37;;
14102;SDS011;7129;48.832;12.472;2022-12-10T08:53:04;46.40;;;29.07;;
14102;SDS011;7129;48.832;12.472;2022-12-10T08:58:08;45.50;;;29.17;;
14102;SDS011;7129;48.832;12.472;2022-12-10T09:03:10;46.67;;;27.37;;
14102;SDS011;7129;48.832;12.472;2022-12-10T09:08:14;43.23;;;28.73;;
14102;SDS011;7129;48.832;12.472;2022-12-10T09:13:16;47.97;;;28.93;;
14102;SDS011;7129;48.832;12.472;2022-12-10T09:18:18;47.73;;;28.70;;
14102;SDS011;7129;48.832;12.472;2022-12-10T09:23:21;45.00;;;27.77;;
14102;SDS011;7129;48.832;12.472;2022-12-10T09:28:23;44.30;;;27.70;;
14102;SDS011;7129;48.832;12.472;2022-12-10T09:33:25;43.17;;;27.73;;
14102;SDS011;7129;48.832;12.472;2022-12-10T09:38:29;43.30;;;28.30;;
14102;SDS011;7129;48.832;12.472;2022-12-10T09:43:36;42.60;;;27.60;;
